WetterOnline ( http://www.wetteronline.de )

Wetter aktuell Bremen

Aktuelles Wetter: Bremerhaven (11m)

6-stündlich | Neueste Meldungen
Ortszeit Temperatur Wetter
So, 22.04. 14:00 19.8° C leicht bewölkt
So, 22.04. 8:00 7.9° C fast wolkenlos
So, 22.04. 2:00 9.1° C wolkenlos
Sa, 21.04. 20:00 13.6° C leicht bewölkt
Sa, 21.04. 14:00 13.4° C wolkenlos
Sa, 21.04. 8:00 10.3° C fast wolkenlos
Sa, 21.04. 2:00 10.5° C wolkenlos
Fr, 20.04. 20:00 14.4° C fast wolkenlos
Ortszeit Temperatur Wetter
So, 22.04. 18:00 23.2° C wolkenlos
So, 22.04. 17:50 23.2° C wolkenlos
So, 22.04. 17:40 23.0° C wolkenlos
So, 22.04. 17:30 22.9° C leicht bewölkt
So, 22.04. 17:20 22.9° C leicht bewölkt
So, 22.04. 17:10 22.8° C leicht bewölkt
So, 22.04. 17:00 22.7° C fast wolkenlos
So, 22.04. 16:30 22.5° C fast wolkenlos
So, 22.04. 16:00 21.7° C wolkenlos
So, 22.04. 15:30 21.1° C wolkenlos
So, 22.04. 15:00 21.1° C wolkenlos
Ortszeit Relative Feuchte Sichtweite
So, 22.04. 14:00 41% 10 km
So, 22.04. 8:00 82% 10 km
So, 22.04. 2:00 80% 10 km
Sa, 21.04. 20:00 59% 10 km
Sa, 21.04. 14:00 71% 10 km
Sa, 21.04. 8:00 89% 9 km
Sa, 21.04. 2:00 90% 10 km
Fr, 20.04. 20:00 73% 10 km
Ortszeit Relative Feuchte Sichtweite
So, 22.04. 18:00 46% 10 km
So, 22.04. 17:50 46% -
So, 22.04. 17:40 46% -
So, 22.04. 17:30 45% 10 km
So, 22.04. 17:20 45% -
So, 22.04. 17:10 45% -
So, 22.04. 17:00 42% 10 km
So, 22.04. 16:30 39% 10 km
So, 22.04. 16:00 38% 9 km
So, 22.04. 15:30 37% 10 km
So, 22.04. 15:00 38% 10 km
Ortszeit Niederschlagsmenge Niederschlagsart
So, 22.04. 14:00 0.0 l/m2 in 6 Std. -
So, 22.04. 8:00 0.0 l/m2 in 12 Std. -
So, 22.04. 2:00 0.0 l/m2 in 6 Std. -
Sa, 21.04. 20:00 0.0 l/m2 in 12 Std. -
Sa, 21.04. 14:00 0.0 l/m2 in 6 Std. -
Sa, 21.04. 8:00 0.0 l/m2 in 12 Std. -
Sa, 21.04. 2:00 0.0 l/m2 in 6 Std. -
Fr, 20.04. 20:00 0.0 l/m2 in 12 Std. -
Ortszeit Niederschlagsmenge Niederschlagsart
So, 22.04. 18:00 0.0 l/m2 in 1 Std. -
So, 22.04. 17:50 keine Meldung -
So, 22.04. 17:40 keine Meldung -
So, 22.04. 17:30 0.0 l/m2 in 1 Std. -
So, 22.04. 17:20 keine Meldung -
So, 22.04. 17:10 keine Meldung -
So, 22.04. 17:00 0.0 l/m2 in 1 Std. -
So, 22.04. 16:30 0.0 l/m2 in 1 Std. -
So, 22.04. 16:00 0.0 l/m2 in 1 Std. -
So, 22.04. 15:30 0.0 l/m2 in 1 Std. -
So, 22.04. 15:00 0.0 l/m2 in 1 Std. -
Ortszeit Stärke Spitze Richtung
km/h Bft. km/h Grad Sektor
So, 22.04. 14:00 18 3 32 100° O
So, 22.04. 8:00 11 2 17 80° O
So, 22.04. 2:00 4 1 14 120° SO
Sa, 21.04. 20:00 11 2 29 340° N
Sa, 21.04. 14:00 22 4 25 320° NW
Sa, 21.04. 8:00 13 3 26 340° N
Sa, 21.04. 2:00 26 4 33 310° NW
Fr, 20.04. 20:00 28 4 41 330° NW
Ortszeit Stärke Spitze Richtung
km/h Bft. km/h Grad Sektor
So, 22.04. 18:00 14 3 29 150° SO
So, 22.04. 17:50 14 3 - 150° SO
So, 22.04. 17:40 17 3 - 120° SO
So, 22.04. 17:30 17 3 28 150° SO
So, 22.04. 17:20 17 3 - 150° SO
So, 22.04. 17:10 17 3 - 140° SO
So, 22.04. 17:00 17 3 31 150° SO
So, 22.04. 16:30 14 3 32 140° SO
So, 22.04. 16:00 20 4 37 110° O
So, 22.04. 15:30 22 4 36 110° O
So, 22.04. 15:00 20 4 33 110° O
Ortszeit Untergrenze Bedeckung Gattung
total tief tief mittel hoch
So, 22.04. 14:00 2700 m 2/8 2/8 - - -
So, 22.04. 8:00 5700 m 1/8 1/8 - - -
So, 22.04. 2:00 - 0/8 0/8 - - -
Sa, 21.04. 20:00 5700 m 3/8 2/8 - - -
Sa, 21.04. 14:00 10500 m 0/8 0/8 - - -
Sa, 21.04. 8:00 10500 m 1/8 0/8 - - -
Sa, 21.04. 2:00 - 0/8 0/8 - - -
Fr, 20.04. 20:00 10500 m 1/8 0/8 - - -
Ortszeit Bedeckungsgrad in Achtel und Wolkenuntergrenze
So, 22.04. 18:00 keine Wolken
So, 22.04. 17:50 keine Wolken
So, 22.04. 17:40 keine Wolken
So, 22.04. 17:30 1(5400m)
So, 22.04. 17:20 1(5400m) 2(12000m)
So, 22.04. 17:10 1(5400m) 4(12000m)
So, 22.04. 17:00 1(5400m)
So, 22.04. 16:30 1(5700m)
So, 22.04. 16:00 3(5700m)
So, 22.04. 15:30 keine Wolken
So, 22.04. 15:00 keine Wolken
Ortszeit Luftdruck NN (hPa) Tendenz (hPa in 3 Std.)
So, 22.04. 14:00 1013 - 2,9
So, 22.04. 8:00 1017 - 1,0
So, 22.04. 2:00 1020 - 0,9
Sa, 21.04. 20:00 1021 - 1,1
Sa, 21.04. 14:00 1023 - 0,2
Sa, 21.04. 8:00 1022 + 0,9
Sa, 21.04. 2:00 1021 + 0,2
Fr, 20.04. 20:00 1021 - 0,4
Ortszeit Luftdruck NN (hPa) Tendenz (hPa in 3 Std.)
So, 22.04. 18:00 1009 - 2,5
So, 22.04. 17:50 1009 keine Meldung
So, 22.04. 17:40 1010 keine Meldung
So, 22.04. 17:30 1010 - 2,9
So, 22.04. 17:20 1010 keine Meldung
So, 22.04. 17:10 1010 keine Meldung
So, 22.04. 17:00 1010 - 2,6
So, 22.04. 16:30 1011 - 2,7
So, 22.04. 16:00 1011 - 2,9
So, 22.04. 15:30 1011 - 3,0
So, 22.04. 15:00 1012 - 2,7
Ortszeit Schneehöhe (cm)
So, 22.04. 14:00 0
So, 22.04. 8:00 0
So, 22.04. 2:00 0
Sa, 21.04. 20:00 0
Sa, 21.04. 14:00 0
Sa, 21.04. 8:00 0
Sa, 21.04. 2:00 0
Fr, 20.04. 20:00 0
Ortszeit Schneehöhe (cm)
So, 22.04. 18:00 0
So, 22.04. 17:50 0
So, 22.04. 17:40 0
So, 22.04. 17:30 0
So, 22.04. 17:20 0
So, 22.04. 17:10 0
So, 22.04. 17:00 0
So, 22.04. 16:30 0
So, 22.04. 16:00 0
So, 22.04. 15:30 0
So, 22.04. 15:00 0
Link zu dieser Seite / Seite empfehlen

Das Wetter in ...